createdAt,value
2022-08-20T00:02:51.867Z,64.96
2022-08-20T00:06:03.890Z,64.74
2022-08-20T00:09:05.260Z,64.75
2022-08-20T00:12:07.941Z,64.39
2022-08-20T00:15:09.899Z,64.77
2022-08-20T00:18:12.434Z,65.21
2022-08-20T00:21:19.029Z,65.26
2022-08-20T00:24:20.813Z,65.32
2022-08-20T00:27:22.279Z,65.23
2022-08-20T00:30:24.958Z,65.47
2022-08-20T00:33:26.458Z,66.04
2022-08-20T00:36:32.787Z,65.72
2022-08-20T00:39:35.092Z,64.77
2022-08-20T00:42:45.340Z,64.01
2022-08-20T00:45:46.776Z,64.68
2022-08-20T00:48:52.076Z,64.16
2022-08-20T00:52:05.917Z,64.99
2022-08-20T00:55:08.371Z,64.11
2022-08-20T00:58:09.912Z,63.54
2022-08-20T01:01:11.996Z,63.52
2022-08-20T01:04:13.432Z,62.54
2022-08-20T01:07:14.965Z,62.89
2022-08-20T01:10:19.693Z,62.87
2022-08-20T01:13:23.889Z,62.95
2022-08-20T01:16:31.301Z,63.54
2022-08-20T01:19:40.952Z,63.25
2022-08-20T01:23:08.702Z,62.81
2022-08-20T01:26:10.103Z,62.76
2022-08-20T01:29:25.647Z,62.71
2022-08-20T01:32:27.187Z,63.10
2022-08-20T01:35:28.875Z,64.20
2022-08-20T01:38:30.732Z,64.18
2022-08-20T01:42:09.929Z,63.60
2022-08-20T01:45:11.404Z,63.74
2022-08-20T01:48:15.483Z,63.62
2022-08-20T01:51:23.468Z,63.15
2022-08-20T01:54:26.072Z,63.02
2022-08-20T01:57:27.826Z,62.86
2022-08-20T02:00:29.348Z,62.60
2022-08-20T02:03:34.811Z,62.97
2022-08-20T02:06:43.286Z,62.89
2022-08-20T02:09:59.080Z,62.87
2022-08-20T02:13:01.167Z,62.37
2022-08-20T02:16:02.968Z,62.84
2022-08-20T02:19:13.105Z,63.46
2022-08-20T02:22:23.337Z,63.59
2022-08-20T02:25:28.777Z,63.76
2022-08-20T02:28:34.403Z,63.57
2022-08-20T02:31:36.947Z,63.33
2022-08-20T02:34:45.182Z,63.25
2022-08-20T02:37:47.278Z,63.80
2022-08-20T02:40:49.990Z,63.19
2022-08-20T02:43:51.509Z,63.57
2022-08-20T02:46:52.997Z,63.65
2022-08-20T02:49:55.103Z,63.43
2022-08-20T02:52:56.627Z,63.62
2022-08-20T02:55:59.080Z,63.22
2022-08-20T02:59:00.835Z,63.27
2022-08-20T03:02:02.323Z,63.08
2022-08-20T03:05:04.574Z,63.38
2022-08-20T03:08:08.369Z,64.35
2022-08-20T03:11:10.436Z,64.05
2022-08-20T03:14:11.932Z,64.25
2022-08-20T03:17:13.499Z,63.94
2022-08-20T03:20:15.468Z,63.78
2022-08-20T03:23:18.132Z,63.29
2022-08-20T03:26:19.687Z,63.65
2022-08-20T03:29:21.155Z,64.20
2022-08-20T03:32:22.883Z,63.76
2022-08-20T03:35:27.561Z,64.23
2022-08-20T03:38:33.022Z,64.40
2022-08-20T03:41:35.061Z,63.79
2022-08-20T03:44:36.742Z,63.54
2022-08-20T03:47:40.970Z,63.65
2022-08-20T03:50:43.855Z,63.50
2022-08-20T03:53:45.330Z,63.65
2022-08-20T03:56:47.278Z,63.60
2022-08-20T03:59:54.696Z,64.17
2022-08-20T04:03:00.820Z,63.94
2022-08-20T04:06:02.396Z,63.69
2022-08-20T04:09:04.737Z,64.09
2022-08-20T04:12:07.462Z,64.17
2022-08-20T04:15:12.318Z,64.22
2022-08-20T04:18:14.817Z,64.16
2022-08-20T04:21:16.449Z,64.03
2022-08-20T04:24:27.541Z,64.02
2022-08-20T04:27:34.084Z,64.07
2022-08-20T04:30:35.746Z,64.33
2022-08-20T04:33:37.245Z,64.24
2022-08-20T04:36:38.969Z,64.51
2022-08-20T04:39:40.450Z,64.87
2022-08-20T04:42:45.080Z,64.11
2022-08-20T04:45:47.867Z,64.57
2022-08-20T04:48:50.361Z,65.49
2022-08-20T04:51:53.013Z,66.01
2022-08-20T04:54:56.472Z,65.86
2022-08-20T04:58:16.570Z,65.61
2022-08-20T05:01:18.528Z,65.41
2022-08-20T05:04:20.048Z,64.82
2022-08-20T05:07:21.515Z,64.71
2022-08-20T05:10:23.638Z,64.28
2022-08-20T05:13:27.552Z,63.92
2022-08-20T05:16:29.644Z,63.76
2022-08-20T05:19:38.335Z,64.10
2022-08-20T05:22:40.457Z,64.26
2022-08-20T05:25:44.383Z,63.72
2022-08-20T05:28:49.972Z,63.50
2022-08-20T05:31:59.865Z,63.91
2022-08-20T05:35:03.001Z,63.86
2022-08-20T05:38:11.722Z,64.37
2022-08-20T05:41:13.166Z,63.51
2022-08-20T05:44:31.453Z,63.52
2022-08-20T05:47:33.427Z,63.58
2022-08-20T05:50:43.354Z,63.96
2022-08-20T05:53:45.006Z,63.23
2022-08-20T05:56:46.504Z,63.95
2022-08-20T05:59:48.192Z,64.07
2022-08-20T06:03:28.193Z,63.96
2022-08-20T06:06:44.813Z,63.52
2022-08-20T06:09:48.981Z,63.34
2022-08-20T06:12:53.279Z,63.54
2022-08-20T06:15:56.224Z,63.48
2022-08-20T06:18:59.995Z,63.78
2022-08-20T06:22:17.643Z,63.35
2022-08-20T06:25:22.171Z,63.71
2022-08-20T06:28:24.353Z,64.13
2022-08-20T06:31:27.380Z,64.76
2022-08-20T06:34:30.950Z,64.21
2022-08-20T06:37:36.519Z,65.65
2022-08-20T06:40:38.986Z,66.06
2022-08-20T06:43:40.617Z,65.79
2022-08-20T06:46:43.354Z,65.96
2022-08-20T06:49:44.935Z,67.15
2022-08-20T06:52:52.992Z,67.87
2022-08-20T06:55:58.027Z,67.43
2022-08-20T06:58:59.735Z,68.14
2022-08-20T07:02:01.199Z,67.68
2022-08-20T07:05:05.180Z,68.11
2022-08-20T07:08:09.269Z,68.83
2022-08-20T07:11:12.130Z,67.94
2022-08-20T07:14:14.537Z,69.27
2022-08-20T07:17:15.985Z,69.14
2022-08-20T07:20:17.846Z,68.58
2022-08-20T07:23:19.301Z,69.08
2022-08-20T07:26:20.749Z,69.50
2022-08-20T07:29:22.228Z,69.60
2022-08-20T07:32:36.937Z,69.54
2022-08-20T07:35:42.034Z,68.89
2022-08-20T07:38:46.726Z,69.29
2022-08-20T07:42:02.867Z,68.65
2022-08-20T07:45:06.053Z,69.62
2022-08-20T07:48:09.831Z,69.19
2022-08-20T07:51:12.069Z,69.32
2022-08-20T07:54:13.516Z,69.26
2022-08-20T07:57:17.195Z,69.58
2022-08-20T08:00:21.972Z,70.11
2022-08-20T08:03:48.901Z,70.42
2022-08-20T08:06:45.355Z,70.00
2022-08-20T08:09:48.546Z,70.17
2022-08-20T08:12:54.820Z,70.30
2022-08-20T08:15:58.046Z,70.48
2022-08-20T08:19:01.911Z,70.95
2022-08-20T08:22:04.954Z,74.15
2022-08-20T08:25:06.612Z,72.83
2022-08-20T08:28:11.992Z,73.12
2022-08-20T08:31:14.911Z,73.89
2022-08-20T08:34:17.350Z,73.30
2022-08-20T08:37:19.115Z,74.99
2022-08-20T08:40:22.348Z,75.53
2022-08-20T08:43:27.276Z,74.34
2022-08-20T08:46:40.242Z,74.17
2022-08-20T08:49:43.074Z,74.80
2022-08-20T08:52:46.027Z,74.37
2022-08-20T08:55:47.919Z,73.71
2022-08-20T08:58:49.725Z,73.95
2022-08-20T09:01:57.317Z,74.31
2022-08-20T09:05:01.919Z,74.06
2022-08-20T09:08:09.326Z,73.42
2022-08-20T09:11:12.392Z,74.19
2022-08-20T09:14:13.933Z,74.35
2022-08-20T09:17:17.011Z,73.87
2022-08-20T09:20:19.050Z,72.83
2022-08-20T09:23:20.528Z,73.19
2022-08-20T09:26:22.073Z,72.75
2022-08-20T09:29:32.537Z,72.50
2022-08-20T09:32:34.379Z,72.49
2022-08-20T09:35:36.411Z,73.61
2022-08-20T09:38:37.897Z,73.35
2022-08-20T09:41:39.380Z,73.81
2022-08-20T09:44:41.373Z,74.30
2022-08-20T09:47:55.062Z,72.89
2022-08-20T09:50:58.266Z,72.68
2022-08-20T09:53:59.997Z,71.96
2022-08-20T09:57:07.052Z,70.64
2022-08-20T10:00:12.168Z,70.90
2022-08-20T10:03:14.404Z,71.25
2022-08-20T10:06:20.065Z,72.22
2022-08-20T10:09:21.835Z,70.88
2022-08-20T10:12:23.297Z,70.52
2022-08-20T10:15:24.829Z,68.87
2022-08-20T10:18:26.405Z,69.01
2022-08-20T10:21:29.438Z,69.19
2022-08-20T10:24:31.432Z,70.46
2022-08-20T10:27:33.067Z,71.45
2022-08-20T10:30:35.121Z,71.87
2022-08-20T10:33:37.928Z,72.73
2022-08-20T10:36:42.266Z,72.64
2022-08-20T10:39:44.810Z,72.68
2022-08-20T10:42:46.485Z,73.34
2022-08-20T10:45:48.478Z,73.48
2022-08-20T10:48:50.015Z,72.49
2022-08-20T10:51:51.560Z,73.62
2022-08-20T10:54:53.984Z,73.50
2022-08-20T10:57:55.725Z,70.50
2022-08-20T11:00:57.295Z,71.29
2022-08-20T11:04:02.084Z,68.04
2022-08-20T11:07:22.133Z,69.42
2022-08-20T11:10:43.854Z,69.06
2022-08-20T11:13:45.586Z,68.13
2022-08-20T11:16:47.157Z,67.04
2022-08-20T11:19:48.700Z,63.78
2022-08-20T11:22:50.844Z,58.30
2022-08-20T11:25:52.369Z,61.53
2022-08-20T11:28:53.814Z,64.04
2022-08-20T11:31:55.619Z,63.86
2022-08-20T11:34:56.972Z,60.04
2022-08-20T11:38:01.084Z,58.02
2022-08-20T11:41:02.832Z,54.51
2022-08-20T11:44:21.016Z,56.74
2022-08-20T11:47:26.633Z,54.99
2022-08-20T11:50:28.243Z,56.50
2022-08-20T11:53:29.719Z,58.40
2022-08-20T11:56:33.317Z,57.15
2022-08-20T11:59:35.049Z,59.48
2022-08-20T12:02:37.037Z,57.84
2022-08-20T12:05:41.145Z,57.85
2022-08-20T12:08:42.677Z,61.45
2022-08-20T12:11:46.063Z,59.84
2022-08-20T12:14:47.920Z,62.46
2022-08-20T12:17:49.411Z,60.58
2022-08-20T12:20:51.013Z,60.54
2022-08-20T12:23:52.716Z,55.27
2022-08-20T12:26:54.201Z,52.92
2022-08-20T12:29:58.146Z,53.21
2022-08-20T12:33:00.535Z,53.25
2022-08-20T12:36:02.308Z,55.96
2022-08-20T12:39:03.822Z,51.56
2022-08-20T12:42:06.243Z,47.79
2022-08-20T12:45:08.408Z,50.50
2022-08-20T12:48:12.460Z,50.78
2022-08-20T12:51:13.913Z,56.26
2022-08-20T12:54:15.370Z,56.28
2022-08-20T12:57:28.669Z,57.13
2022-08-20T13:00:43.171Z,56.14
2022-08-20T13:03:45.141Z,57.38
2022-08-20T13:06:47.377Z,57.07
2022-08-20T13:09:48.994Z,57.12
2022-08-20T13:12:50.836Z,57.72
2022-08-20T13:15:52.394Z,54.97
2022-08-20T13:18:53.868Z,56.86
2022-08-20T13:21:55.473Z,55.17
2022-08-20T13:24:56.900Z,58.41
2022-08-20T13:28:00.508Z,59.53
2022-08-20T13:31:02.204Z,58.13
2022-08-20T13:34:03.572Z,56.60
2022-08-20T13:37:16.302Z,56.02
2022-08-20T13:40:18.463Z,55.10
2022-08-20T13:43:19.962Z,57.02
2022-08-20T13:46:21.469Z,55.96
2022-08-20T13:49:22.925Z,55.34
2022-08-20T13:52:25.659Z,53.27
2022-08-20T13:55:28.937Z,54.18
2022-08-20T13:58:32.343Z,54.17
2022-08-20T14:01:34.078Z,51.12
2022-08-20T14:04:35.860Z,48.73
2022-08-20T14:07:37.972Z,49.88
2022-08-20T14:10:39.840Z,50.78
2022-08-20T14:13:44.248Z,49.30
2022-08-20T14:16:45.712Z,48.10
2022-08-20T14:19:49.358Z,47.50
2022-08-20T14:22:50.885Z,46.05
2022-08-20T14:25:52.396Z,46.86
2022-08-20T14:28:54.068Z,45.51
2022-08-20T14:31:55.439Z,46.03
2022-08-20T14:34:59.156Z,45.66
2022-08-20T14:38:00.702Z,46.92
2022-08-20T14:41:03.030Z,44.11
2022-08-20T14:44:05.294Z,43.25
2022-08-20T14:47:18.078Z,43.18
2022-08-20T14:50:23.540Z,43.05
2022-08-20T14:53:25.011Z,42.60
2022-08-20T14:56:26.550Z,42.82
2022-08-20T14:59:28.134Z,42.07
2022-08-20T15:02:31.019Z,41.24
2022-08-20T15:05:33.288Z,41.60
2022-08-20T15:08:34.859Z,41.29
2022-08-20T15:11:39.128Z,38.74
2022-08-20T15:14:40.819Z,37.96
2022-08-20T15:17:52.313Z,36.85
2022-08-20T15:20:53.843Z,36.38
2022-08-20T15:23:55.401Z,39.24
2022-08-20T15:26:56.860Z,37.11
2022-08-20T15:29:58.437Z,38.93
2022-08-20T15:33:00.470Z,37.92
2022-08-20T15:36:03.027Z,37.16
2022-08-20T15:39:04.773Z,38.17
2022-08-20T15:42:06.733Z,38.56
2022-08-20T15:45:08.940Z,37.37
2022-08-20T15:48:17.167Z,37.52
2022-08-20T15:51:28.738Z,37.52
2022-08-20T15:54:30.303Z,35.89
2022-08-20T15:57:34.380Z,36.16
2022-08-20T16:00:53.954Z,35.44
2022-08-20T16:04:25.748Z,36.11
2022-08-20T16:07:54.810Z,37.83
2022-08-20T16:11:17.411Z,37.91
2022-08-20T16:14:23.155Z,35.63
2022-08-20T16:17:32.215Z,36.10
2022-08-20T16:20:47.924Z,37.75
2022-08-20T16:23:49.667Z,38.00
2022-08-20T16:27:25.353Z,37.51
2022-08-20T16:30:47.182Z,36.49
2022-08-20T16:34:10.498Z,34.92
2022-08-20T16:37:41.997Z,34.49
2022-08-20T16:40:49.595Z,36.17
2022-08-20T16:43:55.929Z,37.51
2022-08-20T16:47:22.347Z,37.13
2022-08-20T16:50:29.002Z,37.75
2022-08-20T16:53:32.664Z,36.64
2022-08-20T16:56:35.772Z,37.22
2022-08-20T16:59:54.739Z,38.51
2022-08-20T17:03:03.330Z,37.37
2022-08-20T17:06:16.645Z,38.45
2022-08-20T17:09:37.506Z,39.42
2022-08-20T17:12:39.005Z,38.83
2022-08-20T17:15:44.124Z,38.32
2022-08-20T17:18:53.651Z,40.62
2022-08-20T17:21:56.381Z,38.37
2022-08-20T17:24:58.025Z,39.67
2022-08-20T17:28:02.087Z,38.28
2022-08-20T17:31:03.672Z,39.06
2022-08-20T17:34:05.479Z,38.57
2022-08-20T17:37:20.165Z,38.07
2022-08-20T17:40:33.672Z,37.48
2022-08-20T17:43:35.390Z,37.58
2022-08-20T17:46:48.081Z,37.84
2022-08-20T17:50:02.853Z,39.11
2022-08-20T17:53:23.163Z,38.38
2022-08-20T17:56:36.910Z,39.39
2022-08-20T18:00:02.815Z,39.16
2022-08-20T18:03:19.704Z,39.92
2022-08-20T18:07:06.891Z,40.04
2022-08-20T18:10:20.771Z,40.26
2022-08-20T18:13:50.128Z,41.00
2022-08-20T18:17:15.235Z,40.91
2022-08-20T18:20:41.852Z,41.59
2022-08-20T18:23:52.547Z,41.77
2022-08-20T18:27:01.036Z,44.16
2022-08-20T18:30:02.863Z,45.79
2022-08-20T18:33:07.935Z,46.24
2022-08-20T18:36:22.535Z,46.78
2022-08-20T18:39:39.620Z,46.83
2022-08-20T18:42:41.199Z,48.75
2022-08-20T18:45:42.877Z,48.49
2022-08-20T18:48:58.263Z,49.47
2022-08-20T18:52:11.152Z,50.11
2022-08-20T18:55:31.553Z,49.82
2022-08-20T18:58:32.969Z,49.39
2022-08-20T19:01:37.117Z,49.85
2022-08-20T19:04:38.817Z,50.81
2022-08-20T19:07:50.509Z,50.55
2022-08-20T19:10:55.116Z,50.40
2022-08-20T19:14:37.079Z,52.54
2022-08-20T19:18:09.243Z,52.19
2022-08-20T19:21:16.003Z,53.11
2022-08-20T19:24:24.559Z,51.84
2022-08-20T19:27:28.350Z,54.02
2022-08-20T19:30:37.809Z,54.37
2022-08-20T19:33:44.371Z,53.99
2022-08-20T19:36:46.466Z,54.62
2022-08-20T19:39:48.042Z,54.32
2022-08-20T19:42:51.438Z,54.00
2022-08-20T19:45:55.854Z,54.53
2022-08-20T19:49:16.250Z,55.17
2022-08-20T19:52:28.276Z,55.43
2022-08-20T19:55:34.619Z,55.28
2022-08-20T19:58:36.329Z,55.39
2022-08-20T20:01:37.850Z,56.43
2022-08-20T20:04:54.837Z,56.25
2022-08-20T20:07:58.644Z,56.99
2022-08-20T20:11:00.994Z,56.99
2022-08-20T20:14:10.387Z,56.90
2022-08-20T20:17:21.063Z,56.96
2022-08-20T20:20:31.439Z,57.44
2022-08-20T20:23:45.822Z,57.92
2022-08-20T20:26:49.477Z,57.70
2022-08-20T20:30:00.260Z,56.49
2022-08-20T20:33:15.781Z,54.33
2022-08-20T20:36:29.849Z,54.02
2022-08-20T20:39:38.485Z,55.56
2022-08-20T20:42:41.273Z,56.79
2022-08-20T20:45:46.337Z,57.31
2022-08-20T20:48:56.900Z,57.30
2022-08-20T20:52:14.971Z,55.16
2022-08-20T20:55:29.607Z,55.90
2022-08-20T20:58:31.140Z,54.64
2022-08-20T21:01:48.353Z,53.67
2022-08-20T21:04:52.324Z,55.70
2022-08-20T21:08:01.688Z,56.51
2022-08-20T21:11:03.181Z,57.01
2022-08-20T21:14:04.818Z,56.86
2022-08-20T21:17:09.199Z,56.76
2022-08-20T21:20:11.446Z,54.95
2022-08-20T21:23:13.274Z,54.36
2022-08-20T21:26:14.874Z,53.90
2022-08-20T21:29:22.781Z,54.10
2022-08-20T21:32:24.260Z,54.56
2022-08-20T21:35:26.112Z,53.92
2022-08-20T21:38:28.179Z,55.02
2022-08-20T21:41:30.348Z,55.98
2022-08-20T21:44:32.565Z,55.29
2022-08-20T21:47:34.138Z,57.58
2022-08-20T21:50:35.779Z,58.37
2022-08-20T21:53:37.229Z,58.13
2022-08-20T21:56:39.355Z,59.05
2022-08-20T21:59:41.399Z,57.15
2022-08-20T22:02:43.109Z,56.15
2022-08-20T22:05:44.839Z,56.23
2022-08-20T22:08:46.303Z,55.87
2022-08-20T22:11:53.881Z,58.04
2022-08-20T22:14:56.177Z,56.59
2022-08-20T22:17:57.664Z,55.29
2022-08-20T22:20:59.755Z,55.60
2022-08-20T22:24:04.768Z,57.96
2022-08-20T22:27:07.163Z,58.34
2022-08-20T22:30:09.616Z,58.40
2022-08-20T22:33:14.199Z,59.08
2022-08-20T22:36:15.968Z,59.19
2022-08-20T22:39:17.416Z,60.09
2022-08-20T22:42:18.962Z,60.18
2022-08-20T22:45:20.597Z,60.34
2022-08-20T22:48:22.129Z,58.47
2022-08-20T22:51:28.750Z,59.16
2022-08-20T22:54:32.002Z,58.56
2022-08-20T22:57:34.375Z,57.37
2022-08-20T23:00:36.393Z,58.42
2022-08-20T23:03:40.174Z,59.87
2022-08-20T23:06:41.928Z,59.73
2022-08-20T23:09:44.382Z,60.15
2022-08-20T23:12:45.918Z,60.39
2022-08-20T23:15:47.452Z,59.59
2022-08-20T23:18:48.958Z,58.11
2022-08-20T23:21:51.512Z,58.54
2022-08-20T23:24:55.351Z,60.02
2022-08-20T23:28:04.079Z,60.43
2022-08-20T23:31:06.289Z,60.14
2022-08-20T23:34:08.165Z,59.88
2022-08-20T23:37:10.241Z,59.87
2022-08-20T23:40:12.986Z,60.48
2022-08-20T23:43:14.499Z,58.85
2022-08-20T23:46:16.508Z,58.69
2022-08-20T23:49:17.996Z,59.24
2022-08-20T23:52:19.640Z,60.85
2022-08-20T23:55:22.798Z,60.86
2022-08-20T23:58:24.256Z,62.12
